sensor_id;sensor_type;location;lat;lon;timestamp;P1;durP1;ratioP1;P2;durP2;ratioP2
71046;SDS011;58703;48.978;8.982;2023-05-10T00:01:54;0.60;;;0.30;;
71046;SDS011;58703;48.978;8.982;2023-05-10T00:04:21;0.43;;;0.30;;
71046;SDS011;58703;48.978;8.982;2023-05-10T00:06:48;2.35;;;0.45;;
71046;SDS011;58703;48.978;8.982;2023-05-10T00:09:14;0.55;;;0.40;;
71046;SDS011;58703;48.978;8.982;2023-05-10T00:11:41;0.40;;;0.40;;
71046;SDS011;58703;48.978;8.982;2023-05-10T00:14:08;0.30;;;0.30;;
71046;SDS011;58703;48.978;8.982;2023-05-10T00:16:34;0.40;;;0.40;;
71046;SDS011;58703;48.978;8.982;2023-05-10T00:19:00;0.47;;;0.40;;
71046;SDS011;58703;48.978;8.982;2023-05-10T00:21:27;0.40;;;0.40;;
71046;SDS011;58703;48.978;8.982;2023-05-10T00:23:54;0.47;;;0.47;;
71046;SDS011;58703;48.978;8.982;2023-05-10T00:26:21;2.25;;;0.43;;
71046;SDS011;58703;48.978;8.982;2023-05-10T00:28:48;0.30;;;0.30;;
71046;SDS011;58703;48.978;8.982;2023-05-10T00:31:13;0.30;;;0.30;;
71046;SDS011;58703;48.978;8.982;2023-05-10T00:33:41;0.60;;;0.33;;
71046;SDS011;58703;48.978;8.982;2023-05-10T00:36:07;0.82;;;0.25;;
71046;SDS011;58703;48.978;8.982;2023-05-10T00:38:34;0.40;;;0.40;;
71046;SDS011;58703;48.978;8.982;2023-05-10T00:41:01;1.05;;;0.40;;
71046;SDS011;58703;48.978;8.982;2023-05-10T00:43:28;0.30;;;0.30;;
71046;SDS011;58703;48.978;8.982;2023-05-10T00:45:55;3.20;;;0.40;;
71046;SDS011;58703;48.978;8.982;2023-05-10T00:48:21;1.77;;;0.90;;
71046;SDS011;58703;48.978;8.982;2023-05-10T00:50:48;0.50;;;0.50;;
71046;SDS011;58703;48.978;8.982;2023-05-10T00:53:14;0.60;;;0.60;;
71046;SDS011;58703;48.978;8.982;2023-05-10T00:55:42;2.13;;;0.52;;
71046;SDS011;58703;48.978;8.982;2023-05-10T00:58:09;1.20;;;1.10;;
71046;SDS011;58703;48.978;8.982;2023-05-10T01:00:35;1.48;;;0.90;;
71046;SDS011;58703;48.978;8.982;2023-05-10T01:03:04;0.60;;;0.60;;
71046;SDS011;58703;48.978;8.982;2023-05-10T01:05:29;0.70;;;0.70;;
71046;SDS011;58703;48.978;8.982;2023-05-10T01:07:56;1.00;;;1.00;;
71046;SDS011;58703;48.978;8.982;2023-05-10T01:10:23;0.80;;;0.80;;
71046;SDS011;58703;48.978;8.982;2023-05-10T01:12:50;0.75;;;0.75;;
71046;SDS011;58703;48.978;8.982;2023-05-10T01:15:17;1.85;;;1.20;;
71046;SDS011;58703;48.978;8.982;2023-05-10T01:17:45;1.20;;;1.10;;
71046;SDS011;58703;48.978;8.982;2023-05-10T01:20:13;3.92;;;1.20;;
71046;SDS011;58703;48.978;8.982;2023-05-10T01:25:55;1.48;;;1.00;;
71046;SDS011;58703;48.978;8.982;2023-05-10T01:34:06;1.73;;;1.35;;
71046;SDS011;58703;48.978;8.982;2023-05-10T01:36:38;1.85;;;1.30;;
71046;SDS011;58703;48.978;8.982;2023-05-10T01:39:17;1.10;;;1.00;;
71046;SDS011;58703;48.978;8.982;2023-05-10T01:42:10;2.53;;;1.27;;
71046;SDS011;58703;48.978;8.982;2023-05-10T01:44:49;1.97;;;1.00;;
71046;SDS011;58703;48.978;8.982;2023-05-10T01:47:31;1.30;;;1.20;;
71046;SDS011;58703;48.978;8.982;2023-05-10T01:50:03;2.08;;;1.20;;
71046;SDS011;58703;48.978;8.982;2023-05-10T01:52:32;1.83;;;0.80;;
71046;SDS011;58703;48.978;8.982;2023-05-10T01:55:04;2.40;;;1.05;;
71046;SDS011;58703;48.978;8.982;2023-05-10T01:57:33;1.33;;;1.10;;
71046;SDS011;58703;48.978;8.982;2023-05-10T02:00:02;0.95;;;0.85;;
71046;SDS011;58703;48.978;8.982;2023-05-10T02:02:33;1.33;;;1.00;;
71046;SDS011;58703;48.978;8.982;2023-05-10T02:05:03;1.50;;;1.10;;
71046;SDS011;58703;48.978;8.982;2023-05-10T02:07:34;1.15;;;1.10;;
71046;SDS011;58703;48.978;8.982;2023-05-10T02:10:05;1.37;;;1.00;;
71046;SDS011;58703;48.978;8.982;2023-05-10T02:12:52;1.23;;;1.02;;
71046;SDS011;58703;48.978;8.982;2023-05-10T02:15:20;1.85;;;1.02;;
71046;SDS011;58703;48.978;8.982;2023-05-10T02:17:50;1.38;;;1.27;;
71046;SDS011;58703;48.978;8.982;2023-05-10T02:20:18;1.25;;;1.15;;
71046;SDS011;58703;48.978;8.982;2023-05-10T02:22:47;1.93;;;1.70;;
71046;SDS011;58703;48.978;8.982;2023-05-10T02:25:15;2.13;;;1.17;;
71046;SDS011;58703;48.978;8.982;2023-05-10T02:27:45;3.28;;;1.60;;
71046;SDS011;58703;48.978;8.982;2023-05-10T02:30:14;1.25;;;1.15;;
71046;SDS011;58703;48.978;8.982;2023-05-10T02:32:41;2.42;;;1.10;;
71046;SDS011;58703;48.978;8.982;2023-05-10T02:35:09;1.87;;;1.77;;
71046;SDS011;58703;48.978;8.982;2023-05-10T02:37:37;1.42;;;1.33;;
71046;SDS011;58703;48.978;8.982;2023-05-10T02:40:06;1.52;;;1.40;;
71046;SDS011;58703;48.978;8.982;2023-05-10T02:42:35;3.65;;;1.48;;
71046;SDS011;58703;48.978;8.982;2023-05-10T02:45:05;1.48;;;1.33;;
71046;SDS011;58703;48.978;8.982;2023-05-10T02:47:36;2.80;;;1.47;;
71046;SDS011;58703;48.978;8.982;2023-05-10T02:50:03;4.85;;;1.83;;
71046;SDS011;58703;48.978;8.982;2023-05-10T02:52:34;3.88;;;2.33;;
71046;SDS011;58703;48.978;8.982;2023-05-10T02:55:06;1.90;;;1.80;;
71046;SDS011;58703;48.978;8.982;2023-05-10T02:57:38;3.08;;;2.78;;
71046;SDS011;58703;48.978;8.982;2023-05-10T03:00:09;2.87;;;2.23;;
71046;SDS011;58703;48.978;8.982;2023-05-10T03:02:35;2.88;;;2.10;;
71046;SDS011;58703;48.978;8.982;2023-05-10T03:05:03;2.15;;;1.98;;
71046;SDS011;58703;48.978;8.982;2023-05-10T03:07:30;3.30;;;2.55;;
71046;SDS011;58703;48.978;8.982;2023-05-10T03:09:57;3.45;;;2.47;;
71046;SDS011;58703;48.978;8.982;2023-05-10T03:15:07;2.97;;;2.30;;
71046;SDS011;58703;48.978;8.982;2023-05-10T03:20:48;3.22;;;2.70;;
71046;SDS011;58703;48.978;8.982;2023-05-10T03:23:34;2.72;;;2.33;;
71046;SDS011;58703;48.978;8.982;2023-05-10T03:26:03;3.73;;;2.60;;
71046;SDS011;58703;48.978;8.982;2023-05-10T03:28:31;3.47;;;2.80;;
71046;SDS011;58703;48.978;8.982;2023-05-10T03:31:01;3.38;;;3.03;;
71046;SDS011;58703;48.978;8.982;2023-05-10T03:33:30;4.80;;;3.53;;
71046;SDS011;58703;48.978;8.982;2023-05-10T03:35:58;14.23;;;3.40;;
71046;SDS011;58703;48.978;8.982;2023-05-10T03:38:23;3.27;;;2.87;;
71046;SDS011;58703;48.978;8.982;2023-05-10T03:40:50;4.88;;;3.20;;
71046;SDS011;58703;48.978;8.982;2023-05-10T03:43:17;4.18;;;3.70;;
71046;SDS011;58703;48.978;8.982;2023-05-10T03:45:44;3.85;;;3.03;;
71046;SDS011;58703;48.978;8.982;2023-05-10T03:48:10;5.33;;;3.10;;
71046;SDS011;58703;48.978;8.982;2023-05-10T03:50:37;6.18;;;3.50;;
71046;SDS011;58703;48.978;8.982;2023-05-10T03:53:04;9.05;;;3.20;;
71046;SDS011;58703;48.978;8.982;2023-05-10T03:55:29;3.05;;;2.60;;
71046;SDS011;58703;48.978;8.982;2023-05-10T03:57:59;4.30;;;2.83;;
71046;SDS011;58703;48.978;8.982;2023-05-10T04:00:25;3.77;;;3.23;;
71046;SDS011;58703;48.978;8.982;2023-05-10T04:02:51;3.10;;;2.80;;
71046;SDS011;58703;48.978;8.982;2023-05-10T04:05:18;3.00;;;2.72;;
71046;SDS011;58703;48.978;8.982;2023-05-10T04:07:45;2.70;;;2.45;;
71046;SDS011;58703;48.978;8.982;2023-05-10T04:10:13;3.33;;;2.70;;
71046;SDS011;58703;48.978;8.982;2023-05-10T04:12:38;8.57;;;2.70;;
71046;SDS011;58703;48.978;8.982;2023-05-10T04:15:05;2.92;;;2.33;;
71046;SDS011;58703;48.978;8.982;2023-05-10T04:17:33;3.00;;;2.73;;
71046;SDS011;58703;48.978;8.982;2023-05-10T04:19:58;2.60;;;2.40;;
71046;SDS011;58703;48.978;8.982;2023-05-10T04:22:25;3.00;;;2.60;;
71046;SDS011;58703;48.978;8.982;2023-05-10T04:24:51;2.30;;;2.10;;
71046;SDS011;58703;48.978;8.982;2023-05-10T04:27:17;2.30;;;2.05;;
71046;SDS011;58703;48.978;8.982;2023-05-10T04:29:44;2.50;;;2.30;;
71046;SDS011;58703;48.978;8.982;2023-05-10T04:32:11;2.07;;;1.80;;
71046;SDS011;58703;48.978;8.982;2023-05-10T04:34:38;2.33;;;1.90;;
71046;SDS011;58703;48.978;8.982;2023-05-10T04:37:09;1.98;;;1.80;;
71046;SDS011;58703;48.978;8.982;2023-05-10T04:39:36;2.60;;;2.17;;
71046;SDS011;58703;48.978;8.982;2023-05-10T04:42:03;4.30;;;2.38;;
71046;SDS011;58703;48.978;8.982;2023-05-10T04:44:32;7.07;;;3.67;;
71046;SDS011;58703;48.978;8.982;2023-05-10T04:46:59;2.53;;;2.30;;
71046;SDS011;58703;48.978;8.982;2023-05-10T04:49:26;2.88;;;2.25;;
71046;SDS011;58703;48.978;8.982;2023-05-10T04:51:51;3.17;;;2.60;;
71046;SDS011;58703;48.978;8.982;2023-05-10T04:54:17;4.13;;;2.40;;
71046;SDS011;58703;48.978;8.982;2023-05-10T04:56:42;3.47;;;2.43;;
71046;SDS011;58703;48.978;8.982;2023-05-10T04:59:08;3.00;;;2.60;;
71046;SDS011;58703;48.978;8.982;2023-05-10T05:01:34;2.30;;;2.10;;
71046;SDS011;58703;48.978;8.982;2023-05-10T05:04:00;3.25;;;2.60;;
71046;SDS011;58703;48.978;8.982;2023-05-10T05:06:27;3.65;;;2.50;;
71046;SDS011;58703;48.978;8.982;2023-05-10T05:08:54;7.07;;;2.60;;
71046;SDS011;58703;48.978;8.982;2023-05-10T05:11:21;3.00;;;2.70;;
71046;SDS011;58703;48.978;8.982;2023-05-10T05:13:48;3.53;;;1.92;;
71046;SDS011;58703;48.978;8.982;2023-05-10T05:16:13;5.30;;;2.80;;
71046;SDS011;58703;48.978;8.982;2023-05-10T05:18:40;5.33;;;2.30;;
71046;SDS011;58703;48.978;8.982;2023-05-10T05:21:19;2.42;;;2.20;;
71046;SDS011;58703;48.978;8.982;2023-05-10T05:23:46;3.08;;;2.38;;
71046;SDS011;58703;48.978;8.982;2023-05-10T05:26:13;2.95;;;2.35;;
71046;SDS011;58703;48.978;8.982;2023-05-10T05:28:41;2.33;;;2.13;;
71046;SDS011;58703;48.978;8.982;2023-05-10T05:31:08;3.10;;;2.40;;
71046;SDS011;58703;48.978;8.982;2023-05-10T05:33:34;2.90;;;2.40;;
71046;SDS011;58703;48.978;8.982;2023-05-10T05:36:00;4.40;;;2.67;;
71046;SDS011;58703;48.978;8.982;2023-05-10T05:38:27;4.83;;;2.50;;
71046;SDS011;58703;48.978;8.982;2023-05-10T05:40:54;5.25;;;2.30;;
71046;SDS011;58703;48.978;8.982;2023-05-10T05:43:21;3.15;;;2.17;;
71046;SDS011;58703;48.978;8.982;2023-05-10T05:45:47;4.22;;;2.33;;
71046;SDS011;58703;48.978;8.982;2023-05-10T05:48:12;3.43;;;2.47;;
71046;SDS011;58703;48.978;8.982;2023-05-10T05:50:39;3.97;;;2.25;;
71046;SDS011;58703;48.978;8.982;2023-05-10T05:53:06;3.37;;;2.40;;
71046;SDS011;58703;48.978;8.982;2023-05-10T05:55:33;4.85;;;2.20;;
71046;SDS011;58703;48.978;8.982;2023-05-10T05:58:00;3.20;;;2.42;;
71046;SDS011;58703;48.978;8.982;2023-05-10T06:00:27;4.07;;;2.17;;
71046;SDS011;58703;48.978;8.982;2023-05-10T06:02:54;2.50;;;2.30;;
71046;SDS011;58703;48.978;8.982;2023-05-10T06:05:21;5.40;;;2.20;;
71046;SDS011;58703;48.978;8.982;2023-05-10T06:07:47;3.55;;;2.10;;
71046;SDS011;58703;48.978;8.982;2023-05-10T06:10:14;2.88;;;2.08;;
71046;SDS011;58703;48.978;8.982;2023-05-10T06:12:40;1.92;;;1.73;;
71046;SDS011;58703;48.978;8.982;2023-05-10T06:15:07;4.77;;;3.30;;
71046;SDS011;58703;48.978;8.982;2023-05-10T06:17:33;2.05;;;1.90;;
71046;SDS011;58703;48.978;8.982;2023-05-10T06:19:59;4.57;;;2.20;;
71046;SDS011;58703;48.978;8.982;2023-05-10T06:22:25;3.58;;;1.77;;
71046;SDS011;58703;48.978;8.982;2023-05-10T06:24:51;1.83;;;1.60;;
71046;SDS011;58703;48.978;8.982;2023-05-10T06:27:17;2.70;;;2.28;;
71046;SDS011;58703;48.978;8.982;2023-05-10T06:29:44;1.95;;;1.70;;
71046;SDS011;58703;48.978;8.982;2023-05-10T06:32:11;1.73;;;1.40;;
71046;SDS011;58703;48.978;8.982;2023-05-10T06:34:38;6.43;;;1.73;;
71046;SDS011;58703;48.978;8.982;2023-05-10T06:37:04;1.80;;;1.42;;
71046;SDS011;58703;48.978;8.982;2023-05-10T06:39:31;2.50;;;1.27;;
71046;SDS011;58703;48.978;8.982;2023-05-10T06:41:58;1.20;;;1.10;;
71046;SDS011;58703;48.978;8.982;2023-05-10T06:44:23;1.93;;;1.33;;
71046;SDS011;58703;48.978;8.982;2023-05-10T06:46:50;1.33;;;1.23;;
71046;SDS011;58703;48.978;8.982;2023-05-10T06:49:19;4.83;;;1.20;;
71046;SDS011;58703;48.978;8.982;2023-05-10T06:51:44;3.25;;;1.30;;
71046;SDS011;58703;48.978;8.982;2023-05-10T06:54:11;4.35;;;1.40;;
71046;SDS011;58703;48.978;8.982;2023-05-10T06:56:37;0.90;;;0.90;;
71046;SDS011;58703;48.978;8.982;2023-05-10T06:59:04;1.02;;;0.80;;
71046;SDS011;58703;48.978;8.982;2023-05-10T07:01:31;3.88;;;1.15;;
71046;SDS011;58703;48.978;8.982;2023-05-10T07:03:58;1.42;;;0.73;;
71046;SDS011;58703;48.978;8.982;2023-05-10T07:06:24;1.48;;;1.00;;
71046;SDS011;58703;48.978;8.982;2023-05-10T07:08:51;1.03;;;0.93;;
71046;SDS011;58703;48.978;8.982;2023-05-10T07:11:17;0.80;;;0.80;;
71046;SDS011;58703;48.978;8.982;2023-05-10T07:13:43;2.97;;;0.87;;
71046;SDS011;58703;48.978;8.982;2023-05-10T07:16:11;0.93;;;0.80;;
71046;SDS011;58703;48.978;8.982;2023-05-10T07:18:36;2.00;;;0.77;;
71046;SDS011;58703;48.978;8.982;2023-05-10T07:21:02;3.28;;;0.88;;
71046;SDS011;58703;48.978;8.982;2023-05-10T07:23:29;0.80;;;0.77;;
71046;SDS011;58703;48.978;8.982;2023-05-10T07:25:56;1.43;;;0.70;;
71046;SDS011;58703;48.978;8.982;2023-05-10T07:28:24;2.88;;;0.60;;
71046;SDS011;58703;48.978;8.982;2023-05-10T07:30:50;2.33;;;0.93;;
71046;SDS011;58703;48.978;8.982;2023-05-10T07:33:16;2.10;;;0.50;;
71046;SDS011;58703;48.978;8.982;2023-05-10T07:35:43;5.80;;;0.63;;
71046;SDS011;58703;48.978;8.982;2023-05-10T07:38:08;3.30;;;1.48;;
71046;SDS011;58703;48.978;8.982;2023-05-10T07:40:38;0.50;;;0.47;;
71046;SDS011;58703;48.978;8.982;2023-05-10T07:43:04;2.05;;;0.40;;
71046;SDS011;58703;48.978;8.982;2023-05-10T07:45:30;1.50;;;0.87;;
71046;SDS011;58703;48.978;8.982;2023-05-10T07:47:56;0.80;;;0.60;;
71046;SDS011;58703;48.978;8.982;2023-05-10T07:50:21;1.03;;;0.50;;
71046;SDS011;58703;48.978;8.982;2023-05-10T07:52:47;0.97;;;0.40;;
71046;SDS011;58703;48.978;8.982;2023-05-10T07:55:14;1.55;;;0.68;;
71046;SDS011;58703;48.978;8.982;2023-05-10T07:57:40;3.20;;;0.40;;
71046;SDS011;58703;48.978;8.982;2023-05-10T08:00:06;0.30;;;0.30;;
71046;SDS011;58703;48.978;8.982;2023-05-10T08:02:34;0.30;;;0.30;;
71046;SDS011;58703;48.978;8.982;2023-05-10T08:05:01;0.40;;;0.30;;
71046;SDS011;58703;48.978;8.982;2023-05-10T08:07:27;0.17;;;0.17;;
71046;SDS011;58703;48.978;8.982;2023-05-10T08:09:53;0.97;;;0.10;;
71046;SDS011;58703;48.978;8.982;2023-05-10T08:12:19;0.53;;;0.30;;
71046;SDS011;58703;48.978;8.982;2023-05-10T08:14:46;7.22;;;1.27;;
71046;SDS011;58703;48.978;8.982;2023-05-10T08:17:13;0.47;;;0.17;;
71046;SDS011;58703;48.978;8.982;2023-05-10T08:19:38;0.55;;;0.22;;
71046;SDS011;58703;48.978;8.982;2023-05-10T08:22:04;0.30;;;0.30;;
71046;SDS011;58703;48.978;8.982;2023-05-10T08:24:30;1.17;;;0.20;;
71046;SDS011;58703;48.978;8.982;2023-05-10T08:26:56;2.27;;;0.10;;
71046;SDS011;58703;48.978;8.982;2023-05-10T08:29:21;0.20;;;0.20;;
71046;SDS011;58703;48.978;8.982;2023-05-10T08:31:47;0.40;;;0.20;;
71046;SDS011;58703;48.978;8.982;2023-05-10T08:34:13;0.50;;;0.20;;
71046;SDS011;58703;48.978;8.982;2023-05-10T08:36:40;0.35;;;0.32;;
71046;SDS011;58703;48.978;8.982;2023-05-10T08:39:05;1.05;;;0.10;;
71046;SDS011;58703;48.978;8.982;2023-05-10T08:41:31;1.10;;;0.10;;
71046;SDS011;58703;48.978;8.982;2023-05-10T08:43:58;0.20;;;0.20;;
71046;SDS011;58703;48.978;8.982;2023-05-10T08:46:27;1.00;;;0.13;;
71046;SDS011;58703;48.978;8.982;2023-05-10T08:48:54;1.07;;;0.10;;
71046;SDS011;58703;48.978;8.982;2023-05-10T08:51:25;0.50;;;0.20;;
71046;SDS011;58703;48.978;8.982;2023-05-10T08:53:55;0.30;;;0.13;;
71046;SDS011;58703;48.978;8.982;2023-05-10T08:56:22;0.20;;;0.20;;
71046;SDS011;58703;48.978;8.982;2023-05-10T08:58:50;1.55;;;0.50;;
71046;SDS011;58703;48.978;8.982;2023-05-10T09:01:16;0.83;;;0.40;;
71046;SDS011;58703;48.978;8.982;2023-05-10T09:03:45;1.17;;;0.20;;
71046;SDS011;58703;48.978;8.982;2023-05-10T09:06:14;1.23;;;0.30;;
71046;SDS011;58703;48.978;8.982;2023-05-10T09:08:42;0.20;;;0.20;;
71046;SDS011;58703;48.978;8.982;2023-05-10T09:11:11;0.50;;;0.40;;
71046;SDS011;58703;48.978;8.982;2023-05-10T09:13:39;0.40;;;0.20;;
71046;SDS011;58703;48.978;8.982;2023-05-10T09:16:06;0.80;;;0.40;;
71046;SDS011;58703;48.978;8.982;2023-05-10T09:18:33;0.63;;;0.38;;
71046;SDS011;58703;48.978;8.982;2023-05-10T09:21:00;0.30;;;0.20;;
71046;SDS011;58703;48.978;8.982;2023-05-10T09:23:25;1.08;;;0.20;;
71046;SDS011;58703;48.978;8.982;2023-05-10T09:26:05;0.27;;;0.27;;
71046;SDS011;58703;48.978;8.982;2023-05-10T09:28:49;1.23;;;0.20;;
71046;SDS011;58703;48.978;8.982;2023-05-10T09:31:19;1.33;;;0.43;;
71046;SDS011;58703;48.978;8.982;2023-05-10T09:33:46;2.05;;;0.25;;
71046;SDS011;58703;48.978;8.982;2023-05-10T09:36:14;0.45;;;0.30;;
71046;SDS011;58703;48.978;8.982;2023-05-10T09:38:50;0.73;;;0.40;;
71046;SDS011;58703;48.978;8.982;2023-05-10T09:41:19;0.20;;;0.20;;
71046;SDS011;58703;48.978;8.982;2023-05-10T09:43:47;1.80;;;0.50;;
71046;SDS011;58703;48.978;8.982;2023-05-10T09:46:15;0.88;;;0.30;;
71046;SDS011;58703;48.978;8.982;2023-05-10T09:48:45;0.75;;;0.40;;
71046;SDS011;58703;48.978;8.982;2023-05-10T09:51:18;0.20;;;0.20;;
71046;SDS011;58703;48.978;8.982;2023-05-10T09:53:50;1.55;;;0.25;;
71046;SDS011;58703;48.978;8.982;2023-05-10T09:56:39;1.15;;;0.43;;
71046;SDS011;58703;48.978;8.982;2023-05-10T09:59:11;0.38;;;0.10;;
71046;SDS011;58703;48.978;8.982;2023-05-10T10:01:38;0.38;;;0.17;;
71046;SDS011;58703;48.978;8.982;2023-05-10T10:04:06;2.00;;;0.37;;
71046;SDS011;58703;48.978;8.982;2023-05-10T10:06:37;2.28;;;0.10;;
71046;SDS011;58703;48.978;8.982;2023-05-10T10:09:05;1.85;;;0.20;;
71046;SDS011;58703;48.978;8.982;2023-05-10T10:11:31;0.30;;;0.20;;
71046;SDS011;58703;48.978;8.982;2023-05-10T10:13:57;0.63;;;0.47;;
71046;SDS011;58703;48.978;8.982;2023-05-10T10:16:23;1.23;;;0.30;;
71046;SDS011;58703;48.978;8.982;2023-05-10T10:18:50;0.30;;;0.30;;
71046;SDS011;58703;48.978;8.982;2023-05-10T10:21:17;1.30;;;0.40;;
71046;SDS011;58703;48.978;8.982;2023-05-10T10:23:44;0.32;;;0.10;;
71046;SDS011;58703;48.978;8.982;2023-05-10T10:26:10;1.42;;;0.32;;
71046;SDS011;58703;48.978;8.982;2023-05-10T10:28:42;1.80;;;0.20;;
71046;SDS011;58703;48.978;8.982;2023-05-10T10:31:36;1.27;;;0.28;;
71046;SDS011;58703;48.978;8.982;2023-05-10T10:34:10;1.23;;;0.20;;
71046;SDS011;58703;48.978;8.982;2023-05-10T10:36:45;0.55;;;0.32;;
71046;SDS011;58703;48.978;8.982;2023-05-10T10:39:13;0.57;;;0.30;;
71046;SDS011;58703;48.978;8.982;2023-05-10T10:41:51;1.90;;;0.20;;
71046;SDS011;58703;48.978;8.982;2023-05-10T10:49:52;1.33;;;0.20;;
71046;SDS011;58703;48.978;8.982;2023-05-10T10:52:27;0.17;;;0.08;;
71046;SDS011;58703;48.978;8.982;2023-05-10T10:57:50;2.30;;;0.25;;
71046;SDS011;58703;48.978;8.982;2023-05-10T11:00:36;1.02;;;0.43;;
71046;SDS011;58703;48.978;8.982;2023-05-10T11:03:09;0.77;;;0.43;;
71046;SDS011;58703;48.978;8.982;2023-05-10T11:05:42;0.45;;;0.30;;
71046;SDS011;58703;48.978;8.982;2023-05-10T11:08:16;2.00;;;0.30;;
71046;SDS011;58703;48.978;8.982;2023-05-10T11:11:01;1.25;;;0.32;;
71046;SDS011;58703;48.978;8.982;2023-05-10T11:13:44;1.05;;;0.40;;
71046;SDS011;58703;48.978;8.982;2023-05-10T11:16:21;1.85;;;0.50;;
71046;SDS011;58703;48.978;8.982;2023-05-10T11:18:58;1.35;;;0.50;;
71046;SDS011;58703;48.978;8.982;2023-05-10T11:21:25;0.73;;;0.30;;
71046;SDS011;58703;48.978;8.982;2023-05-10T11:23:55;1.30;;;0.45;;
71046;SDS011;58703;48.978;8.982;2023-05-10T11:26:30;2.30;;;0.40;;
71046;SDS011;58703;48.978;8.982;2023-05-10T11:29:00;1.65;;;0.43;;
71046;SDS011;58703;48.978;8.982;2023-05-10T11:31:27;0.67;;;0.40;;
71046;SDS011;58703;48.978;8.982;2023-05-10T11:33:57;0.95;;;0.50;;
71046;SDS011;58703;48.978;8.982;2023-05-10T11:36:32;1.38;;;0.63;;
71046;SDS011;58703;48.978;8.982;2023-05-10T11:39:00;3.00;;;0.52;;
71046;SDS011;58703;48.978;8.982;2023-05-10T11:41:27;1.48;;;0.85;;
71046;SDS011;58703;48.978;8.982;2023-05-10T11:43:55;3.83;;;0.80;;
71046;SDS011;58703;48.978;8.982;2023-05-10T11:46:24;1.10;;;0.75;;
71046;SDS011;58703;48.978;8.982;2023-05-10T11:48:53;2.28;;;0.85;;
71046;SDS011;58703;48.978;8.982;2023-05-10T11:51:22;6.05;;;1.10;;
71046;SDS011;58703;48.978;8.982;2023-05-10T11:53:54;0.93;;;0.65;;
71046;SDS011;58703;48.978;8.982;2023-05-10T11:56:21;2.97;;;0.83;;
71046;SDS011;58703;48.978;8.982;2023-05-10T11:58:56;1.63;;;1.05;;
71046;SDS011;58703;48.978;8.982;2023-05-10T12:01:26;0.88;;;0.88;;
71046;SDS011;58703;48.978;8.982;2023-05-10T12:03:52;3.33;;;1.10;;
71046;SDS011;58703;48.978;8.982;2023-05-10T12:06:19;1.45;;;0.90;;
71046;SDS011;58703;48.978;8.982;2023-05-10T12:08:46;0.30;;;0.30;;
71046;SDS011;58703;48.978;8.982;2023-05-10T12:11:14;1.98;;;0.50;;
71046;SDS011;58703;48.978;8.982;2023-05-10T12:13:43;2.97;;;1.02;;
71046;SDS011;58703;48.978;8.982;2023-05-10T12:16:21;1.38;;;0.40;;
71046;SDS011;58703;48.978;8.982;2023-05-10T12:18:50;0.70;;;0.40;;
71046;SDS011;58703;48.978;8.982;2023-05-10T12:21:18;1.10;;;0.50;;
71046;SDS011;58703;48.978;8.982;2023-05-10T12:23:46;2.13;;;0.85;;
71046;SDS011;58703;48.978;8.982;2023-05-10T12:26:15;2.55;;;0.70;;
71046;SDS011;58703;48.978;8.982;2023-05-10T12:28:41;3.47;;;0.50;;
71046;SDS011;58703;48.978;8.982;2023-05-10T12:31:08;1.70;;;0.63;;
71046;SDS011;58703;48.978;8.982;2023-05-10T12:33:38;2.75;;;1.08;;
71046;SDS011;58703;48.978;8.982;2023-05-10T12:36:10;2.43;;;0.40;;
71046;SDS011;58703;48.978;8.982;2023-05-10T12:38:44;2.00;;;0.55;;
71046;SDS011;58703;48.978;8.982;2023-05-10T12:41:14;0.80;;;0.65;;
71046;SDS011;58703;48.978;8.982;2023-05-10T12:43:41;1.83;;;0.32;;
71046;SDS011;58703;48.978;8.982;2023-05-10T12:46:13;0.73;;;0.40;;
71046;SDS011;58703;48.978;8.982;2023-05-10T12:48:41;2.35;;;0.25;;
71046;SDS011;58703;48.978;8.982;2023-05-10T12:51:08;3.38;;;0.68;;
71046;SDS011;58703;48.978;8.982;2023-05-10T12:53:37;0.82;;;0.35;;
71046;SDS011;58703;48.978;8.982;2023-05-10T12:56:03;1.20;;;0.32;;
71046;SDS011;58703;48.978;8.982;2023-05-10T12:58:30;2.60;;;0.30;;
71046;SDS011;58703;48.978;8.982;2023-05-10T13:00:58;2.10;;;0.30;;
71046;SDS011;58703;48.978;8.982;2023-05-10T13:03:25;1.70;;;0.40;;
71046;SDS011;58703;48.978;8.982;2023-05-10T13:05:52;2.33;;;0.50;;
71046;SDS011;58703;48.978;8.982;2023-05-10T13:08:19;1.55;;;0.20;;
71046;SDS011;58703;48.978;8.982;2023-05-10T13:10:46;3.83;;;0.70;;
71046;SDS011;58703;48.978;8.982;2023-05-10T13:13:12;1.00;;;0.50;;
71046;SDS011;58703;48.978;8.982;2023-05-10T13:15:39;2.45;;;0.45;;
71046;SDS011;58703;48.978;8.982;2023-05-10T13:18:06;4.30;;;0.80;;
71046;SDS011;58703;48.978;8.982;2023-05-10T13:20:32;2.15;;;0.55;;
71046;SDS011;58703;48.978;8.982;2023-05-10T13:22:57;1.77;;;0.30;;
71046;SDS011;58703;48.978;8.982;2023-05-10T13:25:23;1.77;;;0.37;;
71046;SDS011;58703;48.978;8.982;2023-05-10T13:27:48;3.63;;;0.68;;
71046;SDS011;58703;48.978;8.982;2023-05-10T13:30:14;2.10;;;0.40;;
71046;SDS011;58703;48.978;8.982;2023-05-10T13:32:41;4.40;;;0.30;;
71046;SDS011;58703;48.978;8.982;2023-05-10T13:35:07;0.73;;;0.20;;
71046;SDS011;58703;48.978;8.982;2023-05-10T13:37:34;5.33;;;0.37;;
71046;SDS011;58703;48.978;8.982;2023-05-10T13:40:02;1.73;;;0.40;;
71046;SDS011;58703;48.978;8.982;2023-05-10T13:42:30;0.95;;;0.20;;
71046;SDS011;58703;48.978;8.982;2023-05-10T13:44:59;1.38;;;0.30;;
71046;SDS011;58703;48.978;8.982;2023-05-10T13:47:26;1.45;;;0.20;;
71046;SDS011;58703;48.978;8.982;2023-05-10T13:49:52;5.00;;;0.83;;
71046;SDS011;58703;48.978;8.982;2023-05-10T13:52:18;2.70;;;0.28;;
71046;SDS011;58703;48.978;8.982;2023-05-10T13:54:44;1.47;;;0.20;;
71046;SDS011;58703;48.978;8.982;2023-05-10T13:57:09;0.53;;;0.20;;
71046;SDS011;58703;48.978;8.982;2023-05-10T13:59:38;0.70;;;0.30;;
71046;SDS011;58703;48.978;8.982;2023-05-10T14:02:05;1.52;;;0.50;;
71046;SDS011;58703;48.978;8.982;2023-05-10T14:04:31;1.70;;;0.35;;
71046;SDS011;58703;48.978;8.982;2023-05-10T14:06:58;4.50;;;0.63;;
71046;SDS011;58703;48.978;8.982;2023-05-10T14:09:25;1.33;;;0.30;;
71046;SDS011;58703;48.978;8.982;2023-05-10T14:11:50;1.02;;;0.30;;
71046;SDS011;58703;48.978;8.982;2023-05-10T14:14:16;1.30;;;0.30;;
71046;SDS011;58703;48.978;8.982;2023-05-10T14:16:43;0.47;;;0.20;;
71046;SDS011;58703;48.978;8.982;2023-05-10T14:19:10;1.40;;;0.23;;
71046;SDS011;58703;48.978;8.982;2023-05-10T14:21:37;0.85;;;0.10;;
71046;SDS011;58703;48.978;8.982;2023-05-10T14:24:05;2.08;;;0.32;;
71046;SDS011;58703;48.978;8.982;2023-05-10T14:26:33;2.97;;;0.40;;
71046;SDS011;58703;48.978;8.982;2023-05-10T14:29:01;1.75;;;0.40;;
71046;SDS011;58703;48.978;8.982;2023-05-10T14:31:27;1.67;;;0.60;;
71046;SDS011;58703;48.978;8.982;2023-05-10T14:33:56;1.27;;;0.25;;
71046;SDS011;58703;48.978;8.982;2023-05-10T14:36:24;2.25;;;0.32;;
71046;SDS011;58703;48.978;8.982;2023-05-10T14:38:50;1.75;;;0.38;;
71046;SDS011;58703;48.978;8.982;2023-05-10T14:41:17;1.40;;;0.13;;
71046;SDS011;58703;48.978;8.982;2023-05-10T14:43:44;0.97;;;0.30;;
71046;SDS011;58703;48.978;8.982;2023-05-10T14:46:11;2.38;;;0.60;;
71046;SDS011;58703;48.978;8.982;2023-05-10T14:48:37;0.73;;;0.50;;
71046;SDS011;58703;48.978;8.982;2023-05-10T14:51:03;1.42;;;0.50;;
71046;SDS011;58703;48.978;8.982;2023-05-10T14:53:29;0.90;;;0.20;;
71046;SDS011;58703;48.978;8.982;2023-05-10T14:55:55;0.50;;;0.50;;
71046;SDS011;58703;48.978;8.982;2023-05-10T14:58:22;2.53;;;0.40;;
71046;SDS011;58703;48.978;8.982;2023-05-10T15:00:47;1.30;;;0.40;;
71046;SDS011;58703;48.978;8.982;2023-05-10T15:03:14;0.27;;;0.20;;
71046;SDS011;58703;48.978;8.982;2023-05-10T15:05:41;1.50;;;0.55;;
71046;SDS011;58703;48.978;8.982;2023-05-10T15:08:08;1.92;;;0.50;;
71046;SDS011;58703;48.978;8.982;2023-05-10T15:10:36;3.03;;;0.60;;
71046;SDS011;58703;48.978;8.982;2023-05-10T15:13:03;1.67;;;0.57;;
71046;SDS011;58703;48.978;8.982;2023-05-10T15:15:30;3.43;;;0.50;;
71046;SDS011;58703;48.978;8.982;2023-05-10T15:17:55;1.45;;;0.43;;